createdAt,value
2023-01-29T00:01:23.900Z,0.83
2023-01-29T00:03:53.391Z,0.83
2023-01-29T00:06:23.625Z,0.84
2023-01-29T00:08:52.883Z,0.81
2023-01-29T00:11:21.835Z,0.82
2023-01-29T00:13:51.145Z,0.83
2023-01-29T00:16:20.057Z,0.87
2023-01-29T00:18:50.867Z,0.85
2023-01-29T00:21:22.386Z,0.88
2023-01-29T00:23:52.600Z,0.93
2023-01-29T00:26:21.591Z,0.93
2023-01-29T00:28:51.252Z,0.98
2023-01-29T00:31:23.527Z,0.97
2023-01-29T00:33:55.008Z,0.95
2023-01-29T00:36:24.937Z,0.94
2023-01-29T00:38:58.812Z,1.00
2023-01-29T00:41:47.665Z,1.00
2023-01-29T00:44:35.740Z,1.01
2023-01-29T00:47:25.824Z,1.03
2023-01-29T00:49:56.498Z,1.02
2023-01-29T00:52:25.718Z,1.04
2023-01-29T00:54:56.249Z,1.06
2023-01-29T00:57:25.118Z,1.08
2023-01-29T00:59:56.447Z,1.12
2023-01-29T01:02:44.056Z,1.04
2023-01-29T01:05:18.896Z,1.07
2023-01-29T01:07:49.081Z,1.05
2023-01-29T01:10:21.042Z,1.06
2023-01-29T01:12:52.426Z,1.06
2023-01-29T01:15:22.379Z,1.08
2023-01-29T01:17:54.856Z,1.01
2023-01-29T01:20:27.370Z,1.02
2023-01-29T01:22:56.695Z,1.06
2023-01-29T01:25:27.313Z,1.08
2023-01-29T01:30:29.675Z,1.06
2023-01-29T01:32:58.983Z,1.09
2023-01-29T01:35:29.603Z,1.08
2023-01-29T01:37:58.340Z,1.09
2023-01-29T01:40:28.450Z,1.07
2023-01-29T01:42:59.274Z,1.08
2023-01-29T01:45:31.360Z,1.10
2023-01-29T01:48:05.498Z,1.10
2023-01-29T01:50:40.237Z,1.10
2023-01-29T01:53:12.582Z,1.08
2023-01-29T01:55:45.214Z,1.06
2023-01-29T01:58:19.490Z,1.02
2023-01-29T02:00:48.866Z,1.00
2023-01-29T02:03:36.029Z,0.99
2023-01-29T02:06:25.698Z,0.93
2023-01-29T02:09:16.489Z,0.89
2023-01-29T02:11:45.835Z,0.86
2023-01-29T02:14:14.813Z,0.85
2023-01-29T02:16:44.051Z,0.81
2023-01-29T02:19:18.201Z,0.81
2023-01-29T02:22:13.319Z,0.84
2023-01-29T02:25:14.320Z,0.81
2023-01-29T02:28:17.986Z,0.80
2023-01-29T02:30:54.379Z,0.75
2023-01-29T02:33:36.728Z,0.75
2023-01-29T02:36:14.673Z,0.75
2023-01-29T02:38:51.533Z,0.77
2023-01-29T02:41:30.070Z,0.79
2023-01-29T02:44:07.909Z,0.78
2023-01-29T02:46:47.307Z,0.79
2023-01-29T02:49:23.582Z,0.79
2023-01-29T02:52:00.403Z,0.76
2023-01-29T02:54:39.312Z,0.72
2023-01-29T02:57:16.259Z,0.70
2023-01-29T02:59:51.134Z,0.71
2023-01-29T03:02:28.989Z,0.72
2023-01-29T03:05:04.216Z,0.75
2023-01-29T03:07:45.892Z,0.79
2023-01-29T03:10:25.810Z,0.82
2023-01-29T03:12:59.758Z,0.82
2023-01-29T03:15:38.857Z,0.87
2023-01-29T03:18:45.913Z,0.88
2023-01-29T03:21:37.925Z,0.89
2023-01-29T03:24:27.683Z,0.86
2023-01-29T03:27:20.827Z,0.84
2023-01-29T03:30:11.819Z,0.85
2023-01-29T03:33:08.963Z,0.83
2023-01-29T03:35:47.585Z,0.84
2023-01-29T03:38:17.374Z,0.83
2023-01-29T03:40:52.044Z,0.84
2023-01-29T03:43:33.068Z,0.86
2023-01-29T03:46:08.452Z,0.84
2023-01-29T03:48:40.722Z,0.80
2023-01-29T03:51:23.362Z,0.80
2023-01-29T03:54:00.107Z,0.80
2023-01-29T03:56:40.304Z,0.79
2023-01-29T03:59:18.525Z,0.73
2023-01-29T04:02:11.160Z,0.78
2023-01-29T04:04:44.727Z,0.80
2023-01-29T04:07:23.792Z,0.78
2023-01-29T04:10:07.041Z,0.80
2023-01-29T04:12:43.281Z,0.83
2023-01-29T04:15:16.499Z,0.82
2023-01-29T04:17:51.686Z,0.83
2023-01-29T04:20:27.967Z,0.82
2023-01-29T04:22:58.486Z,0.82
2023-01-29T04:25:33.486Z,0.79
2023-01-29T04:28:12.503Z,0.82
2023-01-29T04:30:49.357Z,0.77
2023-01-29T04:33:30.310Z,0.77
2023-01-29T04:36:23.419Z,0.80
2023-01-29T04:39:03.714Z,0.82
2023-01-29T04:41:37.273Z,0.83
2023-01-29T04:44:12.495Z,0.82
2023-01-29T04:46:50.037Z,0.85
2023-01-29T04:49:30.556Z,0.88
2023-01-29T04:52:06.554Z,0.87
2023-01-29T04:54:52.484Z,0.87
2023-01-29T04:57:27.890Z,0.89
2023-01-29T05:00:03.892Z,0.89
2023-01-29T05:02:36.586Z,0.90
2023-01-29T05:05:06.967Z,0.89
2023-01-29T05:07:38.814Z,0.90
2023-01-29T05:10:12.501Z,0.86
2023-01-29T05:12:44.941Z,0.86
2023-01-29T05:15:19.155Z,0.90
2023-01-29T05:17:48.524Z,0.94
2023-01-29T05:20:18.186Z,0.95
2023-01-29T05:22:49.296Z,0.98
2023-01-29T05:25:26.721Z,0.99
2023-01-29T05:28:04.176Z,1.01
2023-01-29T05:30:35.243Z,1.03
2023-01-29T05:33:05.583Z,1.06
2023-01-29T05:35:34.845Z,1.08
2023-01-29T05:38:04.250Z,1.08
2023-01-29T05:40:34.822Z,1.11
2023-01-29T05:43:04.456Z,1.10
2023-01-29T05:45:33.650Z,1.10
2023-01-29T05:48:02.908Z,1.02
2023-01-29T05:50:31.873Z,1.09
2023-01-29T05:53:02.197Z,1.09
2023-01-29T05:55:31.205Z,1.11
2023-01-29T05:58:02.297Z,1.10
2023-01-29T06:00:32.221Z,1.12
2023-01-29T06:03:01.556Z,1.16
2023-01-29T06:05:30.500Z,1.19
2023-01-29T06:07:59.747Z,1.21
2023-01-29T06:10:28.699Z,1.21
2023-01-29T06:12:57.868Z,1.22
2023-01-29T06:15:28.593Z,1.22
2023-01-29T06:17:58.766Z,1.24
2023-01-29T06:20:27.708Z,1.30
2023-01-29T06:22:56.936Z,1.32
2023-01-29T06:25:25.829Z,1.35
2023-01-29T06:27:56.231Z,1.36
2023-01-29T06:30:28.401Z,1.36
2023-01-29T06:32:58.803Z,1.38
2023-01-29T06:35:27.903Z,1.39
2023-01-29T06:37:58.254Z,1.40
2023-01-29T06:40:27.192Z,1.43
2023-01-29T06:42:56.457Z,1.44
2023-01-29T06:45:25.436Z,1.45
2023-01-29T06:47:57.485Z,1.48
2023-01-29T06:50:27.402Z,1.48
2023-01-29T06:52:56.588Z,1.51
2023-01-29T06:55:25.494Z,1.54
2023-01-29T06:57:54.908Z,1.58
2023-01-29T07:00:23.970Z,1.59
2023-01-29T07:02:53.227Z,1.60
2023-01-29T07:05:23.551Z,1.62
2023-01-29T07:07:52.953Z,1.65
2023-01-29T07:10:22.328Z,1.66
2023-01-29T07:12:51.589Z,1.68
2023-01-29T07:15:21.388Z,1.66
2023-01-29T07:18:01.128Z,1.71
2023-01-29T07:20:32.154Z,1.72
2023-01-29T07:23:01.469Z,1.74
2023-01-29T07:25:31.027Z,1.77
2023-01-29T07:28:02.186Z,1.82
2023-01-29T07:30:31.166Z,1.83
2023-01-29T07:33:07.079Z,1.84
2023-01-29T07:35:40.412Z,1.84
2023-01-29T07:38:10.084Z,1.89
2023-01-29T07:40:39.030Z,1.92
2023-01-29T07:43:09.252Z,1.96
2023-01-29T07:45:40.227Z,1.95
2023-01-29T07:48:12.497Z,2.00
2023-01-29T07:50:44.087Z,2.02
2023-01-29T07:53:16.012Z,2.07
2023-01-29T07:55:46.240Z,2.08
2023-01-29T07:58:15.789Z,2.11
2023-01-29T08:00:44.808Z,2.10
2023-01-29T08:03:16.660Z,2.14
2023-01-29T08:05:47.378Z,2.16
2023-01-29T08:08:16.738Z,2.16
2023-01-29T08:10:45.601Z,2.18
2023-01-29T08:13:14.888Z,2.22
2023-01-29T08:15:46.139Z,2.24
2023-01-29T08:18:15.644Z,2.29
2023-01-29T08:20:46.008Z,2.33
2023-01-29T08:23:17.003Z,2.36
2023-01-29T08:25:46.100Z,2.37
2023-01-29T08:28:15.326Z,2.38
2023-01-29T08:30:44.932Z,2.43
2023-01-29T08:33:14.172Z,2.45
2023-01-29T08:35:43.102Z,2.44
2023-01-29T08:38:13.664Z,2.48
2023-01-29T08:40:42.548Z,2.45
2023-01-29T08:43:14.446Z,2.45
2023-01-29T08:45:44.927Z,2.48
2023-01-29T08:48:14.346Z,2.50
2023-01-29T08:50:43.228Z,2.54
2023-01-29T08:53:13.914Z,2.56
2023-01-29T08:55:42.790Z,2.54
2023-01-29T08:58:13.185Z,2.57
2023-01-29T09:00:42.197Z,2.56
2023-01-29T09:03:11.425Z,2.61
2023-01-29T09:05:41.612Z,2.66
2023-01-29T09:08:11.506Z,2.68
2023-01-29T09:10:42.068Z,2.67
2023-01-29T09:13:11.404Z,2.68
2023-01-29T09:15:40.324Z,2.69
2023-01-29T09:18:09.709Z,2.71
2023-01-29T09:20:38.980Z,2.77
2023-01-29T09:23:08.550Z,2.76
2023-01-29T09:25:37.942Z,2.76
2023-01-29T09:28:08.913Z,2.79
2023-01-29T09:30:38.552Z,2.78
2023-01-29T09:33:08.434Z,2.82
2023-01-29T09:35:37.543Z,2.82
2023-01-29T09:38:06.724Z,2.84
2023-01-29T09:40:42.507Z,2.86
2023-01-29T09:43:18.264Z,2.90
2023-01-29T09:45:55.206Z,2.92
2023-01-29T09:48:29.604Z,2.92
2023-01-29T09:51:02.861Z,2.88
2023-01-29T09:53:38.867Z,2.90
2023-01-29T09:56:14.031Z,2.93
2023-01-29T09:58:46.093Z,2.94
2023-01-29T10:01:20.484Z,2.96
2023-01-29T10:04:16.787Z,2.95
2023-01-29T10:07:00.370Z,2.95
2023-01-29T10:09:56.859Z,2.92
2023-01-29T10:12:45.109Z,2.93
2023-01-29T10:15:30.614Z,2.97
2023-01-29T10:18:18.296Z,2.98
2023-01-29T10:21:00.129Z,3.01
2023-01-29T10:23:34.599Z,3.03
2023-01-29T10:26:04.366Z,3.00
2023-01-29T10:28:38.169Z,3.04
2023-01-29T10:31:13.722Z,3.03
2023-01-29T10:34:01.516Z,3.07
2023-01-29T10:36:37.352Z,3.04
2023-01-29T10:39:06.372Z,3.02
2023-01-29T10:41:55.559Z,3.06
2023-01-29T10:44:37.854Z,3.05
2023-01-29T10:47:42.640Z,3.03
2023-01-29T10:50:42.184Z,3.05
2023-01-29T10:53:37.169Z,3.09
2023-01-29T10:56:23.122Z,3.14
2023-01-29T10:58:57.687Z,3.16
2023-01-29T11:01:28.068Z,3.16
2023-01-29T11:04:01.999Z,3.16
2023-01-29T11:06:33.289Z,3.17
2023-01-29T11:09:09.773Z,3.22
2023-01-29T11:11:45.516Z,3.23
2023-01-29T11:14:18.825Z,3.21
2023-01-29T11:16:50.002Z,3.22
2023-01-29T11:19:37.003Z,3.29
2023-01-29T11:22:09.420Z,3.30
2023-01-29T11:24:38.965Z,3.29
2023-01-29T11:27:17.429Z,3.29
2023-01-29T11:29:48.544Z,3.35
2023-01-29T11:32:28.018Z,3.35
2023-01-29T11:35:04.417Z,3.41
2023-01-29T11:37:36.733Z,3.41
2023-01-29T11:40:34.334Z,3.45
2023-01-29T11:43:19.088Z,3.46
2023-01-29T11:45:50.318Z,3.51
2023-01-29T11:48:22.956Z,3.57
2023-01-29T11:50:56.597Z,3.55
2023-01-29T11:53:38.664Z,3.56
2023-01-29T11:56:21.269Z,3.57
2023-01-29T11:58:52.800Z,3.55
2023-01-29T12:01:34.052Z,3.52
2023-01-29T12:04:04.639Z,3.51
2023-01-29T12:06:38.849Z,3.51
2023-01-29T12:09:16.842Z,3.49
2023-01-29T12:11:46.488Z,3.45
2023-01-29T12:14:30.000Z,3.41
2023-01-29T12:17:04.449Z,3.37
2023-01-29T12:19:40.847Z,3.36
2023-01-29T12:22:18.563Z,3.34
2023-01-29T12:24:54.015Z,3.32
2023-01-29T12:27:28.806Z,3.32
2023-01-29T12:30:05.023Z,3.31
2023-01-29T12:32:42.145Z,3.27
2023-01-29T12:35:18.480Z,3.27
2023-01-29T12:37:58.468Z,3.23
2023-01-29T12:40:32.282Z,3.21
2023-01-29T12:43:08.089Z,3.21
2023-01-29T12:45:38.788Z,3.19
2023-01-29T12:48:12.828Z,3.20
2023-01-29T12:50:42.175Z,3.22
2023-01-29T12:53:26.636Z,3.25
2023-01-29T12:56:00.787Z,3.22
2023-01-29T12:58:34.864Z,3.23
2023-01-29T13:01:10.871Z,3.25
2023-01-29T13:03:52.104Z,3.26
2023-01-29T13:06:27.372Z,3.30
2023-01-29T13:09:02.683Z,3.32
2023-01-29T13:11:39.273Z,3.33
2023-01-29T13:14:15.218Z,3.35
2023-01-29T13:16:49.414Z,3.40
2023-01-29T13:19:27.438Z,3.39
2023-01-29T13:21:58.668Z,3.37
2023-01-29T13:24:37.549Z,3.35
2023-01-29T13:27:07.122Z,3.32
2023-01-29T13:29:37.666Z,3.28
2023-01-29T13:32:09.931Z,3.27
2023-01-29T13:34:46.720Z,3.30
2023-01-29T13:37:28.246Z,3.31
2023-01-29T13:40:00.727Z,3.29
2023-01-29T13:42:41.478Z,3.26
2023-01-29T13:45:21.838Z,3.28
2023-01-29T13:47:53.117Z,3.31
2023-01-29T13:50:33.326Z,3.35
2023-01-29T13:53:05.351Z,3.36
2023-01-29T13:55:39.066Z,3.36
2023-01-29T13:58:10.013Z,3.34
2023-01-29T14:01:01.221Z,3.29
2023-01-29T14:04:03.886Z,3.32
2023-01-29T14:06:51.966Z,3.31
2023-01-29T14:10:02.524Z,3.29
2023-01-29T14:12:53.114Z,3.28
2023-01-29T14:15:32.218Z,3.27
2023-01-29T14:18:28.472Z,3.29
2023-01-29T14:21:04.935Z,3.25
2023-01-29T14:23:46.169Z,3.27
2023-01-29T14:26:24.412Z,3.27
2023-01-29T14:29:02.739Z,3.25
2023-01-29T14:31:44.428Z,3.24
2023-01-29T14:34:23.743Z,3.20
2023-01-29T14:36:56.365Z,3.16
2023-01-29T14:39:37.321Z,3.17
2023-01-29T14:42:24.033Z,3.18
2023-01-29T14:45:13.027Z,3.14
2023-01-29T14:48:05.489Z,3.12
2023-01-29T14:51:00.744Z,3.12
2023-01-29T14:53:47.599Z,3.14
2023-01-29T14:56:24.313Z,3.13
2023-01-29T14:58:59.215Z,3.14
2023-01-29T15:01:38.958Z,3.11
2023-01-29T15:04:19.409Z,3.15
2023-01-29T15:06:54.611Z,3.13
2023-01-29T15:09:37.330Z,3.11
2023-01-29T15:12:18.835Z,3.14
2023-01-29T15:14:59.783Z,3.12
2023-01-29T15:17:38.772Z,3.12
2023-01-29T15:20:33.802Z,3.12
2023-01-29T15:23:04.275Z,3.14
2023-01-29T15:25:37.609Z,3.15
2023-01-29T15:28:11.637Z,3.15
2023-01-29T15:30:43.239Z,3.11
2023-01-29T15:33:16.027Z,3.09
2023-01-29T15:35:45.381Z,3.10
2023-01-29T15:38:19.208Z,3.12
2023-01-29T15:40:56.651Z,3.16
2023-01-29T15:43:28.302Z,3.17
2023-01-29T15:46:26.858Z,3.16
2023-01-29T15:49:01.841Z,3.18
2023-01-29T15:51:31.221Z,3.18
2023-01-29T15:54:02.812Z,3.17
2023-01-29T15:56:36.070Z,3.17
2023-01-29T15:59:10.146Z,3.14
2023-01-29T16:01:39.235Z,3.15
2023-01-29T16:04:16.232Z,3.17
2023-01-29T16:06:46.201Z,3.17
2023-01-29T16:09:21.465Z,3.18
2023-01-29T16:11:51.455Z,3.19
2023-01-29T16:14:23.323Z,3.21
2023-01-29T16:16:52.593Z,3.20
2023-01-29T16:19:25.737Z,3.23
2023-01-29T16:22:01.351Z,3.22
2023-01-29T16:24:32.414Z,3.14
2023-01-29T16:27:03.205Z,3.14
2023-01-29T16:29:34.543Z,3.08
2023-01-29T16:32:06.233Z,3.07
2023-01-29T16:34:39.643Z,3.04
2023-01-29T16:37:19.048Z,3.02
2023-01-29T16:39:50.533Z,3.02
2023-01-29T16:42:28.100Z,2.97
2023-01-29T16:45:02.835Z,2.97
2023-01-29T16:47:36.189Z,2.93
2023-01-29T16:50:27.705Z,2.91
2023-01-29T16:52:58.886Z,2.91
2023-01-29T16:55:33.407Z,2.93
2023-01-29T16:58:06.686Z,2.92
2023-01-29T17:00:36.079Z,2.91
2023-01-29T17:03:08.514Z,2.93
2023-01-29T17:05:39.998Z,2.95
2023-01-29T17:08:15.455Z,2.91
2023-01-29T17:10:49.109Z,2.88
2023-01-29T17:13:25.009Z,2.92
2023-01-29T17:15:55.214Z,2.90
2023-01-29T17:18:27.179Z,2.92
2023-01-29T17:20:58.086Z,2.90
2023-01-29T17:23:27.160Z,2.93
2023-01-29T17:25:56.667Z,2.92
2023-01-29T17:28:26.432Z,2.86
2023-01-29T17:31:05.862Z,2.82
2023-01-29T17:33:36.823Z,2.81
2023-01-29T17:36:11.283Z,2.81
2023-01-29T17:38:40.855Z,2.78
2023-01-29T17:41:17.150Z,2.74
2023-01-29T17:43:46.421Z,2.72
2023-01-29T17:46:18.888Z,2.72
2023-01-29T17:48:49.465Z,2.69
2023-01-29T17:51:20.602Z,2.68
2023-01-29T17:53:49.695Z,2.67
2023-01-29T17:56:22.561Z,2.58
2023-01-29T17:58:51.751Z,2.67
2023-01-29T18:01:21.084Z,2.65
2023-01-29T18:03:50.274Z,2.65
2023-01-29T18:06:27.245Z,2.68
2023-01-29T18:08:56.811Z,2.66
2023-01-29T18:11:27.182Z,2.63
2023-01-29T18:13:56.744Z,2.67
2023-01-29T18:16:27.021Z,2.63
2023-01-29T18:18:56.057Z,2.66
2023-01-29T18:21:26.969Z,2.67
2023-01-29T18:23:56.668Z,2.65
2023-01-29T18:26:25.903Z,2.63
2023-01-29T18:28:54.914Z,2.65
2023-01-29T18:31:24.447Z,2.65
2023-01-29T18:33:53.621Z,2.68
2023-01-29T18:36:23.011Z,2.70
2023-01-29T18:38:53.548Z,2.72
2023-01-29T18:41:23.480Z,2.75
2023-01-29T18:43:52.944Z,2.71
2023-01-29T18:46:24.328Z,2.72
2023-01-29T18:48:53.565Z,2.73
2023-01-29T18:51:23.361Z,2.73
2023-01-29T18:53:54.361Z,2.72
2023-01-29T18:56:23.911Z,2.72
2023-01-29T18:58:56.575Z,2.75
2023-01-29T19:01:27.291Z,2.76
2023-01-29T19:03:59.253Z,2.76
2023-01-29T19:06:28.752Z,2.75
2023-01-29T19:08:59.543Z,2.77
2023-01-29T19:11:28.895Z,2.76
2023-01-29T19:13:57.838Z,2.73
2023-01-29T19:16:28.459Z,2.71
2023-01-29T19:18:59.154Z,2.73
2023-01-29T19:21:30.479Z,2.71
2023-01-29T19:24:00.989Z,2.72
2023-01-29T19:26:34.135Z,2.71
2023-01-29T19:29:03.493Z,2.71
2023-01-29T19:31:33.036Z,2.70
2023-01-29T19:34:02.322Z,2.69
2023-01-29T19:36:31.771Z,2.72
2023-01-29T19:39:02.319Z,2.69
2023-01-29T19:41:31.697Z,2.72
2023-01-29T19:44:00.672Z,2.72
2023-01-29T19:46:30.400Z,2.73
2023-01-29T19:48:59.520Z,2.75
2023-01-29T19:51:29.323Z,2.77
2023-01-29T19:53:58.712Z,2.76
2023-01-29T19:56:29.804Z,2.74
2023-01-29T19:58:58.853Z,2.77
2023-01-29T20:01:29.730Z,2.75
2023-01-29T20:03:59.428Z,2.72
2023-01-29T20:06:32.113Z,2.73
2023-01-29T20:09:03.219Z,2.72
2023-01-29T20:11:38.039Z,2.73
2023-01-29T20:14:08.168Z,2.71
2023-01-29T20:16:38.629Z,2.68
2023-01-29T20:19:13.977Z,2.67
2023-01-29T20:21:49.108Z,2.66
2023-01-29T20:24:18.501Z,2.72
2023-01-29T20:26:49.369Z,2.72
2023-01-29T20:29:18.638Z,2.68
2023-01-29T20:31:48.257Z,2.66
2023-01-29T20:34:17.924Z,2.67
2023-01-29T20:36:47.630Z,2.67
2023-01-29T20:39:17.266Z,2.68
2023-01-29T20:41:48.594Z,2.67
2023-01-29T20:44:18.076Z,2.70
2023-01-29T20:46:47.896Z,2.68
2023-01-29T20:49:17.353Z,2.69
2023-01-29T20:51:47.162Z,2.68
2023-01-29T20:54:16.382Z,2.67
2023-01-29T20:56:47.400Z,2.68
2023-01-29T20:59:18.942Z,2.71
2023-01-29T21:01:48.931Z,2.68
2023-01-29T21:04:18.863Z,2.65
2023-01-29T21:06:48.339Z,2.65
2023-01-29T21:09:17.819Z,2.70
2023-01-29T21:11:48.480Z,2.71
2023-01-29T21:14:18.736Z,2.71
2023-01-29T21:16:48.089Z,2.67
2023-01-29T21:19:17.159Z,2.67
2023-01-29T21:21:46.817Z,2.67
2023-01-29T21:24:18.911Z,2.70
2023-01-29T21:26:48.603Z,2.67
2023-01-29T21:29:19.138Z,2.68
2023-01-29T21:31:48.640Z,2.69
2023-01-29T21:34:17.735Z,2.71
2023-01-29T21:36:47.471Z,2.72
2023-01-29T21:39:20.991Z,2.71
2023-01-29T21:42:09.240Z,2.69
2023-01-29T21:44:39.901Z,2.71
2023-01-29T21:47:13.361Z,2.70
2023-01-29T21:49:43.298Z,2.71
2023-01-29T21:52:14.355Z,2.71
2023-01-29T21:54:48.981Z,2.69
2023-01-29T21:57:18.521Z,2.75
2023-01-29T21:59:52.927Z,2.74
2023-01-29T22:02:26.280Z,2.76
2023-01-29T22:05:05.313Z,2.75
2023-01-29T22:07:45.707Z,2.73
2023-01-29T22:10:15.663Z,2.73
2023-01-29T22:12:45.648Z,2.73
2023-01-29T22:15:16.743Z,2.73
2023-01-29T22:17:46.076Z,2.75
2023-01-29T22:20:16.439Z,2.67
2023-01-29T22:22:46.201Z,2.71
2023-01-29T22:25:19.913Z,2.73
2023-01-29T22:27:49.327Z,2.70
2023-01-29T22:30:20.482Z,2.67
2023-01-29T22:32:50.189Z,2.70
2023-01-29T22:35:19.205Z,2.68
2023-01-29T22:37:49.306Z,2.63
2023-01-29T22:40:18.903Z,2.63
2023-01-29T22:42:48.396Z,2.63
2023-01-29T22:45:18.759Z,2.67
2023-01-29T22:47:48.036Z,2.67
2023-01-29T22:50:17.373Z,2.65
2023-01-29T22:52:54.166Z,2.62
2023-01-29T22:55:23.281Z,2.56
2023-01-29T22:57:53.554Z,2.59
2023-01-29T23:00:24.219Z,2.58
2023-01-29T23:02:53.665Z,2.59
2023-01-29T23:05:22.557Z,2.57
2023-01-29T23:07:51.969Z,2.55
2023-01-29T23:10:20.992Z,2.53
2023-01-29T23:12:50.256Z,2.53
2023-01-29T23:15:19.163Z,2.52
2023-01-29T23:17:49.761Z,2.52
2023-01-29T23:20:20.656Z,2.50
2023-01-29T23:22:50.492Z,2.50
2023-01-29T23:25:19.649Z,2.49
2023-01-29T23:27:48.128Z,2.50
2023-01-29T23:30:17.520Z,2.47
2023-01-29T23:32:49.064Z,2.45
2023-01-29T23:35:18.184Z,2.43
2023-01-29T23:37:47.359Z,2.42
2023-01-29T23:40:17.084Z,2.38
2023-01-29T23:42:48.874Z,2.37
2023-01-29T23:45:17.983Z,2.36
2023-01-29T23:47:48.541Z,2.33
2023-01-29T23:50:18.569Z,2.30
2023-01-29T23:52:48.072Z,2.30
2023-01-29T23:55:17.235Z,2.30
2023-01-29T23:57:46.470Z,2.27
